MET'MAP v2.0
soon released !

Expected late october,
this new version will be
more efficient, smarter,
and hosted on a brand new
server x3 powerfull...
...and still free !


Not compatible ?
Try the mobile version !

LOG IN : | Subscribe | Disclaimer | Who is Orbifly ? |
ICAO code :
Legend : VFR Marginal VFR IFR Intensive IFR Very Intensive IFR
Visi :
Ceiling :
>= 8 km
>= 3000ft
5 to 8 km
1000 to 3000 ft
1500m to 5 km
500 to 1000 ft
800 to 1500m
200 to 500 ft
< 800m
< 200 ft

METAR - LEIB Ibiza - 02 Jun 2020 13:43 UTC - Data Source NOAA   


- Airport Elevation : 24 ft
- IATA code : IBZ
- No reported NOTAMs.


LEIB - Ibiza

Latest METAR recorded : 2015/08/11 08:00 LEIB 110800Z 12003KT 9999 SCT018 29/23 Q1014 NOSIG
TAF TAF LEIB
Valid from the 02 at 09:00 until the 03 at 09:00 UTC


020800Z 0209/0309 13008KT CAVOK TX25/0212Z TN17/0306Z

Source NOAA


MET'MAP, your aeronautical weather chart ! - Copyright ORBIFLY December 2007

Programming & Development : Alexandra Zaïnal
Co-Developer : Marc-Olivier Méhu
Technical & hardware support : Manuel Goepfert
Concept & Financing : Baudouin d'Aumeries